Time;durP1;ratioP1;P1;durP2;ratioP2;P2;SDS_P1;SDS_P2;PMS_P1;PMS_P2;Temp;Humidity;BMP_temperature;BMP_pressure;BME280_temperature;BME280_humidity;BME280_pressure;Samples;Min_cycle;Max_cycle;Signal;HPM_P1;HPM_P2
2021/12/14 00:01:09;;;;;;;3.93;2.60;;;;;;;4.84;85.96;98697.78;6181108;28;20793;-77
2021/12/14 00:04:13;;;;;;;2.90;2.50;;;;;;;4.85;85.96;98696.88;6158799;28;20582;-76
2021/12/14 00:07:17;;;;;;;2.50;2.30;;;;;;;4.82;86.34;98695.25;6162270;28;20243;-77
2021/12/14 00:16:45;;;;;;;2.10;1.90;;;;;;;4.81;86.82;98704.00;6183065;28;20716;-76
2021/12/14 00:19:49;;;;;;;2.13;1.97;;;;;;;4.80;86.77;98702.28;6181333;28;20248;-77
2021/12/14 00:25:57;;;;;;;2.03;1.90;;;;;;;4.77;87.34;98697.22;6181850;28;20237;-77
2021/12/14 00:28:59;;;;;;;1.93;1.83;;;;;;;4.78;87.52;98692.84;6181932;28;20229;-76
2021/12/14 00:32:13;;;;;;;2.10;1.97;;;;;;;4.77;87.83;98694.59;6182183;28;20286;-74
2021/12/14 00:35:16;;;;;;;2.47;2.10;;;;;;;4.78;87.25;98690.22;6156575;28;20233;-76
2021/12/14 00:38:22;;;;;;;2.50;2.23;;;;;;;4.78;87.82;98700.69;6181390;28;20248;-76
2021/12/14 00:41:28;;;;;;;2.10;1.90;;;;;;;4.78;87.77;98698.91;6180756;28;20611;-77
2021/12/14 00:44:33;;;;;;;1.80;1.70;;;;;;;4.77;88.11;98696.34;6183605;28;20497;-77
2021/12/14 00:47:35;;;;;;;2.07;1.80;;;;;;;4.77;88.08;98691.13;6171591;28;20656;-74
2021/12/14 00:50:39;;;;;;;2.07;1.87;;;;;;;4.78;87.69;98693.69;6192531;28;20312;-77
2021/12/14 00:53:42;;;;;;;1.70;1.60;;;;;;;4.79;87.97;98692.75;6180383;28;20708;-76
2021/12/14 00:56:47;;;;;;;1.97;1.77;;;;;;;4.82;88.32;98689.16;6180254;28;20657;-77
2021/12/14 00:59:51;;;;;;;1.70;1.53;;;;;;;4.81;88.36;98692.69;6165275;28;20241;-78
2021/12/14 01:02:53;;;;;;;2.27;2.07;;;;;;;4.82;88.82;98699.63;6181917;28;20374;-77
2021/12/14 01:05:56;;;;;;;1.80;1.70;;;;;;;4.82;88.70;98697.84;6165682;28;20227;-75
2021/12/14 01:09:02;;;;;;;2.87;2.23;;;;;;;4.85;88.14;98699.50;6185695;28;20323;-77
2021/12/14 01:12:11;;;;;;;1.97;1.77;;;;;;;4.84;88.34;98705.66;6178958;28;20237;-78
2021/12/14 01:15:29;;;;;;;2.47;1.90;;;;;;;4.85;88.87;98701.25;6180070;28;20217;-77
2021/12/14 01:25:03;;;;;;;2.53;1.93;;;;;;;4.81;88.44;98711.00;6182655;28;20234;-76
2021/12/14 01:28:11;;;;;;;1.80;1.70;;;;;;;4.76;88.07;98710.34;6180078;28;20241;-77
2021/12/14 01:31:27;;;;;;;2.37;2.17;;;;;;;4.76;88.83;98710.34;6181326;28;20684;-77
2021/12/14 01:34:31;;;;;;;2.10;1.90;;;;;;;4.76;89.33;98712.97;6168832;28;20383;-77
2021/12/14 01:37:41;;;;;;;2.50;1.70;;;;;;;4.73;88.53;98708.69;6165786;28;20647;-78
2021/12/14 01:40:53;;;;;;;2.23;2.03;;;;;;;4.75;88.92;98709.50;6180898;28;20284;-77
2021/12/14 01:44:04;;;;;;;2.43;2.10;;;;;;;4.74;88.78;98714.78;6182515;28;20590;-77
2021/12/14 01:47:25;;;;;;;3.47;2.63;;;;;;;4.73;89.20;98703.47;6178959;28;20217;-76
2021/12/14 01:50:51;;;;;;;4.20;3.20;;;;;;;4.78;89.07;98701.53;6181474;28;20365;-78
2021/12/14 01:54:27;;;;;;;4.47;3.27;;;;;;;4.80;89.87;98704.06;6182406;28;20252;-77
2021/12/14 01:57:31;;;;;;;4.17;3.43;;;;;;;4.80;89.32;98699.69;6183614;28;20249;-76
2021/12/14 02:00:41;;;;;;;3.77;3.37;;;;;;;4.82;88.91;98702.22;6168994;28;20232;-74
2021/12/14 02:03:57;;;;;;;6.60;5.03;;;;;;;4.88;89.12;98703.75;6177485;28;20225;-78
2021/12/14 02:07:03;;;;;;;8.27;5.97;;;;;;;4.87;88.63;98696.81;6199429;28;20326;-77
2021/12/14 02:10:11;;;;;;;6.43;5.53;;;;;;;4.90;89.62;98701.91;6181916;28;20260;-78
2021/12/14 02:13:35;;;;;;;7.43;5.30;;;;;;;4.91;88.93;98704.47;6187650;28;20237;-76
2021/12/14 02:16:38;;;;;;;6.63;5.13;;;;;;;4.90;89.05;98705.38;6182485;28;20247;-75
2021/12/14 02:19:42;;;;;;;8.73;6.33;;;;;;;4.91;88.93;98704.47;6182641;28;20667;-75
2021/12/14 02:22:44;;;;;;;6.87;5.87;;;;;;;4.93;88.33;98697.41;6180595;28;20234;-76
2021/12/14 02:25:48;;;;;;;6.60;5.40;;;;;;;4.97;89.13;98706.00;6179056;28;20230;-77
2021/12/14 02:28:51;;;;;;;7.10;5.67;;;;;;;4.98;88.85;98705.09;6182542;28;20233;-77
2021/12/14 02:32:02;;;;;;;6.63;5.60;;;;;;;4.96;88.82;98707.75;6177977;28;20596;-78
2021/12/14 02:35:10;;;;;;;10.93;5.90;;;;;;;4.96;88.95;98712.13;6147504;28;20230;-78
2021/12/14 02:38:13;;;;;;;9.87;6.77;;;;;;;4.96;88.53;98713.00;6179647;28;20241;-78
2021/12/14 02:41:15;;;;;;;8.80;5.97;;;;;;;4.99;88.47;98715.47;6180534;28;20404;-74
2021/12/14 02:44:28;;;;;;;8.10;6.17;;;;;;;5.02;88.23;98707.50;6180080;28;20237;-78
2021/12/14 02:47:30;;;;;;;7.40;6.00;;;;;;;5.05;87.46;98701.28;6177727;28;20228;-77
2021/12/14 02:50:33;;;;;;;6.63;5.40;;;;;;;5.02;88.37;98704.03;6178019;28;20727;-76
2021/12/14 02:53:36;;;;;;;7.43;6.13;;;;;;;5.04;87.55;98708.28;6179091;28;20229;-78
2021/12/14 02:56:42;;;;;;;7.23;5.20;;;;;;;5.06;87.58;98708.22;6179415;28;20291;-78
2021/12/14 02:59:47;;;;;;;6.47;5.47;;;;;;;5.03;87.73;98703.13;6178449;28;20600;-74
2021/12/14 03:02:51;;;;;;;6.67;5.20;;;;;;;5.04;87.33;98712.66;6179332;28;20267;-78
2021/12/14 03:05:58;;;;;;;7.27;5.63;;;;;;;5.05;87.62;98709.13;6160100;28;20240;-76
2021/12/14 03:09:16;;;;;;;8.17;5.73;;;;;;;5.06;88.12;98710.84;6192174;28;20324;-77
2021/12/14 03:12:23;;;;;;;6.43;5.53;;;;;;;5.08;87.19;98703.78;6178286;28;20232;-76
2021/12/14 03:15:46;;;;;;;6.27;5.37;;;;;;;5.09;87.27;98702.88;6176945;28;20222;-76
2021/12/14 03:18:50;;;;;;;7.53;5.30;;;;;;;5.07;88.25;98710.78;6177538;28;20315;-76
2021/12/14 03:21:53;;;;;;;6.77;5.80;;;;;;;5.07;87.59;98710.78;6161408;28;20397;-77
2021/12/14 03:24:55;;;;;;;6.43;4.97;;;;;;;5.07;87.80;98715.16;6161578;28;20232;-78
2021/12/14 03:27:58;;;;;;;8.03;5.60;;;;;;;5.06;87.35;98709.09;6177000;28;20229;-77
2021/12/14 03:31:10;;;;;;;6.70;5.60;;;;;;;5.04;87.71;98705.69;6178625;28;20225;-77
2021/12/14 03:34:23;;;;;;;6.77;5.70;;;;;;;5.03;88.34;98711.81;6166535;28;20221;-75
2021/12/14 03:37:25;;;;;;;5.73;4.93;;;;;;;5.03;87.70;98716.19;6179013;28;20237;-75
2021/12/14 03:40:29;;;;;;;6.60;5.23;;;;;;;5.03;88.31;98708.34;6178671;28;20237;-77
2021/12/14 03:43:34;;;;;;;5.00;4.43;;;;;;;5.00;88.12;98706.69;6177491;28;20252;-78
2021/12/14 03:46:54;;;;;;;6.67;5.27;;;;;;;4.99;88.22;98705.00;6175253;28;20240;-74
2021/12/14 03:50:10;;;;;;;7.00;5.13;;;;;;;5.00;88.86;98706.69;6190227;28;20244;-76
2021/12/14 03:53:13;;;;;;;7.00;5.13;;;;;;;4.99;88.05;98701.56;6177958;28;20739;-77
2021/12/14 03:56:17;;;;;;;5.60;4.57;;;;;;;4.98;88.03;98705.09;6178987;28;20233;-76
2021/12/14 03:59:21;;;;;;;4.80;4.30;;;;;;;4.95;88.00;98695.59;6178010;28;20229;-77
2021/12/14 04:02:24;;;;;;;5.00;4.50;;;;;;;4.97;88.08;98701.63;6177106;28;20240;-77
2021/12/14 04:05:27;;;;;;;4.90;4.07;;;;;;;4.94;88.09;98699.13;6169500;28;20221;-76
2021/12/14 04:08:30;;;;;;;4.63;4.17;;;;;;;4.98;88.93;98702.47;6177992;28;20225;-77
2021/12/14 04:11:33;;;;;;;5.47;4.27;;;;;;;4.98;88.88;98700.72;6178137;28;20240;-75
2021/12/14 04:14:41;;;;;;;5.27;4.37;;;;;;;4.99;88.47;98699.75;6177334;28;20245;-77
2021/12/14 04:17:44;;;;;;;5.90;5.00;;;;;;;4.99;88.52;98701.56;6168523;28;20243;-75
2021/12/14 04:20:47;;;;;;;6.10;4.73;;;;;;;4.98;88.98;98695.47;6187076;28;20225;-75
2021/12/14 04:23:51;;;;;;;4.47;3.87;;;;;;;5.01;88.49;98694.47;6183154;28;20720;-78
2021/12/14 04:26:59;;;;;;;5.43;4.47;;;;;;;5.01;88.66;98700.56;6197008;28;20658;-76
2021/12/14 04:30:10;;;;;;;6.70;5.13;;;;;;;5.04;88.98;98692.59;6180918;28;20701;-76
2021/12/14 04:33:15;;;;;;;4.93;4.23;;;;;;;5.06;87.96;98700.38;6165870;28;20216;-77
2021/12/14 04:36:24;;;;;;;5.17;4.67;;;;;;;5.07;88.34;98702.94;6162675;28;20216;-75
2021/12/14 04:53:10;;;;;;;5.23;4.17;;;;;;;5.09;87.60;98703.69;6148636;28;20613;-76
2021/12/14 04:56:18;;;;;;;4.37;3.77;;;;;;;5.09;87.42;98711.56;6117267;28;20238;-78
2021/12/14 04:59:29;;;;;;;5.20;4.20;;;;;;;5.09;87.10;98710.72;6176676;28;20586;-76
2021/12/14 05:02:33;;;;;;;4.33;3.80;;;;;;;5.09;88.01;98713.34;6180123;28;20256;-76
2021/12/14 05:06:07;;;;;;;4.80;4.27;;;;;;;5.08;87.99;98711.63;6180208;28;20237;-76
2021/12/14 05:09:22;;;;;;;4.57;4.00;;;;;;;5.07;87.66;98709.94;6181320;28;20585;-77
2021/12/14 05:12:33;;;;;;;4.43;4.03;;;;;;;5.05;88.22;98707.38;6165715;28;20225;-77
2021/12/14 05:15:47;;;;;;;3.90;3.50;;;;;;;5.05;88.14;98717.00;6180538;28;20238;-75
2021/12/14 05:18:53;;;;;;;4.77;4.07;;;;;;;5.05;87.91;98709.13;6182624;28;20239;-77
2021/12/14 05:22:13;;;;;;;4.93;4.43;;;;;;;5.02;87.22;98714.50;6180106;28;20330;-76
2021/12/14 05:25:26;;;;;;;3.97;3.57;;;;;;;4.99;87.45;98715.47;6180143;28;20232;-78
2021/12/14 05:28:37;;;;;;;4.47;4.07;;;;;;;4.99;88.39;98712.84;6164170;28;20414;-75
2021/12/14 05:31:51;;;;;;;5.20;4.20;;;;;;;4.96;88.32;98710.38;6181412;28;20815;-77
2021/12/14 05:34:56;;;;;;;4.27;3.57;;;;;;;4.97;88.40;98713.84;6153803;28;20220;-77
2021/12/14 05:37:59;;;;;;;4.03;3.60;;;;;;;4.97;88.73;98711.22;6178230;28;20233;-77
2021/12/14 05:43:05;;;;;;;5.07;3.90;;;;;;;4.99;87.98;98709.41;6133787;28;20325;-77
2021/12/14 05:44:39;;;;;;;4.37;3.70;;;;;;;4.99;87.79;98714.63;6148007;28;20238;-77
2021/12/14 05:47:47;;;;;;;4.07;3.43;;;;;;;4.97;88.27;98701.63;6166211;28;20273;-77
2021/12/14 05:51:16;;;;;;;3.73;3.30;;;;;;;5.02;88.80;98711.88;6131996;28;20246;-77
2021/12/14 05:54:25;;;;;;;3.90;3.50;;;;;;;5.04;87.67;98702.22;6170380;28;20227;-77
2021/12/14 05:57:29;;;;;;;4.70;3.47;;;;;;;5.10;87.44;98707.16;6179160;28;20227;-77
2021/12/14 06:00:32;;;;;;;3.27;2.87;;;;;;;5.12;87.87;98703.59;6180080;28;20229;-75
2021/12/14 06:03:49;;;;;;;3.40;2.90;;;;;;;5.12;87.37;98700.13;6177900;28;20229;-76
2021/12/14 06:06:54;;;;;;;3.70;3.23;;;;;;;5.11;87.60;98703.66;6181685;28;20229;-78
2021/12/14 06:09:58;;;;;;;3.70;3.30;;;;;;;5.06;87.98;98698.63;6179999;28;20232;-77
2021/12/14 06:13:07;;;;;;;3.50;2.93;;;;;;;5.08;88.13;98698.56;6177730;28;20606;-77
2021/12/14 06:16:23;;;;;;;3.57;3.00;;;;;;;5.09;87.33;98690.63;6179569;28;20229;-78
2021/12/14 06:19:25;;;;;;;4.53;3.00;;;;;;;5.09;87.90;98697.66;6181321;28;20263;-77
2021/12/14 06:22:29;;;;;;;3.37;3.07;;;;;;;5.10;87.78;98691.47;6178158;28;20245;-77
2021/12/14 06:25:31;;;;;;;3.90;3.00;;;;;;;5.10;87.89;98692.31;6179376;28;20235;-76
2021/12/14 06:28:33;;;;;;;2.90;2.63;;;;;;;5.13;87.97;98688.75;6163313;28;20388;-77
2021/12/14 06:31:41;;;;;;;3.47;2.93;;;;;;;5.16;87.09;98686.84;6177732;28;20268;-78
2021/12/14 06:34:56;;;;;;;3.00;2.70;;;;;;;5.20;87.66;98695.41;6161377;28;20243;-74
2021/12/14 06:41:22;;;;;;;3.30;3.00;;;;;;;5.22;87.42;98692.72;6178849;28;20332;-77
2021/12/14 06:44:31;;;;;;;3.07;2.43;;;;;;;5.22;87.21;98696.19;6179903;28;20249;-77
2021/12/14 06:47:34;;;;;;;2.90;2.53;;;;;;;5.24;87.20;98688.28;6158960;28;20233;-77
2021/12/14 06:50:43;;;;;;;2.97;2.50;;;;;;;5.26;87.41;98691.69;6177541;28;20240;-77
2021/12/14 06:54:12;;;;;;;2.80;2.33;;;;;;;5.27;87.32;98680.31;6178386;28;20240;-74
2021/12/14 06:57:40;;;;;;;3.30;2.50;;;;;;;5.27;86.96;98689.00;6170959;28;20248;-77
2021/12/14 07:01:01;;;;;;;3.87;2.50;;;;;;;5.30;86.79;98688.00;6179309;28;20240;-77
2021/12/14 07:04:10;;;;;;;2.10;1.83;;;;;;;5.29;87.20;98692.38;6172805;28;20316;-77
2021/12/14 07:07:17;;;;;;;3.27;2.27;;;;;;;5.30;87.67;98690.63;6130873;28;20321;-76
2021/12/14 07:10:21;;;;;;;3.10;2.33;;;;;;;5.33;87.36;98683.50;6192440;28;20807;-77
2021/12/14 07:13:33;;;;;;;2.83;2.30;;;;;;;5.35;86.80;98680.81;6178081;28;20239;-77
2021/12/14 07:16:38;;;;;;;3.03;2.70;;;;;;;5.35;86.86;98691.28;6177553;28;20240;-77
2021/12/14 07:19:53;;;;;;;2.40;2.20;;;;;;;5.37;87.36;98697.31;6179578;28;20248;-77
2021/12/14 07:23:01;;;;;;;2.90;2.60;;;;;;;5.38;87.18;98704.25;6176372;28;20232;-78
2021/12/14 07:26:10;;;;;;;2.77;2.47;;;;;;;5.40;86.89;98707.63;6176311;28;20225;-77
2021/12/14 07:29:19;;;;;;;4.10;2.50;;;;;;;5.40;86.51;98710.25;6178849;28;20229;-77
2021/12/14 07:32:40;;;;;;;2.73;2.53;;;;;;;5.43;86.22;98710.97;6178922;28;20218;-77
2021/12/14 07:35:48;;;;;;;3.10;2.80;;;;;;;5.43;85.96;98705.75;6151884;28;20232;-77
2021/12/14 07:39:00;;;;;;;3.30;2.70;;;;;;;5.45;85.86;98711.78;6178150;28;20237;-77
2021/12/14 07:42:03;;;;;;;2.93;2.57;;;;;;;5.46;86.41;98700.38;6160172;28;20225;-77
2021/12/14 07:45:25;;;;;;;2.57;2.37;;;;;;;5.46;86.28;98703.00;6177100;28;20229;-77
2021/12/14 07:48:41;;;;;;;2.70;2.17;;;;;;;5.42;87.16;98706.66;6157799;28;20229;-77
2021/12/14 07:51:46;;;;;;;2.80;2.37;;;;;;;5.37;86.53;98703.41;6178268;28;20225;-77
2021/12/14 07:54:55;;;;;;;3.10;2.67;;;;;;;5.36;87.00;98711.31;6181829;28;20229;-76
2021/12/14 07:57:57;;;;;;;3.10;2.73;;;;;;;5.34;86.81;98715.75;6181272;28;20679;-75
2021/12/14 08:01:00;;;;;;;3.60;2.73;;;;;;;5.31;86.95;98708.03;6181979;28;20248;-77
2021/12/14 08:04:07;;;;;;;3.33;2.77;;;;;;;5.31;87.36;98715.88;6177294;28;20226;-76
2021/12/14 08:07:09;;;;;;;3.33;2.43;;;;;;;5.33;87.19;98721.91;6149977;28;20310;-77
2021/12/14 08:10:25;;;;;;;3.37;2.70;;;;;;;5.35;87.85;98712.22;6182089;28;20236;-76
2021/12/14 08:13:27;;;;;;;3.17;2.50;;;;;;;5.36;88.00;98713.94;6183248;28;20233;-77
2021/12/14 08:16:47;;;;;;;4.30;2.77;;;;;;;5.36;87.60;98712.16;6183327;28;20318;-77
2021/12/14 08:19:52;;;;;;;2.50;2.30;;;;;;;5.40;88.03;98711.09;6180216;28;20575;-76
2021/12/14 08:23:09;;;;;;;2.97;2.30;;;;;;;5.41;88.07;98709.34;6184968;28;20244;-77
2021/12/14 08:26:25;;;;;;;2.87;2.53;;;;;;;5.43;87.44;98715.38;6182068;28;20709;-77
2021/12/14 08:29:32;;;;;;;2.70;2.50;;;;;;;5.44;87.81;98712.69;6182645;28;20681;-77
2021/12/14 08:32:37;;;;;;;4.60;3.10;;;;;;;5.47;88.35;98712.56;6180672;28;20225;-77
2021/12/14 08:35:41;;;;;;;3.10;2.27;;;;;;;5.52;88.26;98709.72;6168476;28;20244;-77
2021/12/14 08:38:44;;;;;;;2.60;2.30;;;;;;;5.54;87.86;98716.59;6181883;28;20708;-76
2021/12/14 08:41:54;;;;;;;3.00;2.70;;;;;;;5.56;87.63;98717.41;6181259;28;20764;-77
2021/12/14 08:44:59;;;;;;;3.10;2.53;;;;;;;5.60;87.30;98715.47;6181802;28;20744;-77
2021/12/14 08:48:13;;;;;;;3.73;2.97;;;;;;;5.67;87.73;98722.16;6154608;28;20234;-76
2021/12/14 08:51:25;;;;;;;6.10;3.13;;;;;;;5.69;87.27;98717.69;6180828;28;20205;-77
2021/12/14 08:54:29;;;;;;;2.93;2.60;;;;;;;5.77;87.02;98722.63;6181434;28;20225;-75
2021/12/14 08:57:32;;;;;;;3.53;3.07;;;;;;;5.80;86.66;98723.31;6182266;28;20284;-75
2021/12/14 09:00:42;;;;;;;3.10;2.80;;;;;;;5.85;86.24;98716.13;6183579;28;20248;-75
2021/12/14 09:03:53;;;;;;;4.57;3.00;;;;;;;5.90;86.02;98727.25;6177478;28;20287;-76
2021/12/14 09:07:00;;;;;;;2.60;2.40;;;;;;;5.96;85.86;98717.44;6174095;28;20235;-76
2021/12/14 09:10:08;;;;;;;2.60;2.40;;;;;;;6.00;85.76;98719.81;6181361;28;20233;-76
2021/12/14 09:13:13;;;;;;;2.57;2.37;;;;;;;6.06;85.95;98719.56;6180993;28;20238;-76
2021/12/14 09:16:24;;;;;;;2.27;2.00;;;;;;;6.13;85.79;98722.75;6181067;28;20321;-76
2021/12/14 09:19:43;;;;;;;3.93;2.77;;;;;;;6.19;85.60;98715.44;6180793;28;20321;-77
2021/12/14 09:22:51;;;;;;;2.80;2.60;;;;;;;6.22;85.32;98711.84;6179449;28;20233;-76
2021/12/14 09:25:55;;;;;;;3.00;2.47;;;;;;;6.25;84.87;98709.09;6180551;28;20324;-76
2021/12/14 09:28:58;;;;;;;3.57;2.87;;;;;;;6.27;84.91;98699.38;6181968;28;20224;-76
2021/12/14 09:32:07;;;;;;;3.67;2.80;;;;;;;6.31;84.72;98698.31;6179993;28;21119;-77
2021/12/14 09:35:14;;;;;;;2.60;2.40;;;;;;;6.38;84.33;98696.28;6166570;28;20261;-76
2021/12/14 09:38:20;;;;;;;3.20;2.47;;;;;;;6.48;84.20;98700.16;6176755;28;20558;-76
2021/12/14 09:41:31;;;;;;;2.50;2.07;;;;;;;6.54;83.55;98692.84;6179113;28;20231;-76
2021/12/14 09:44:36;;;;;;;2.20;2.00;;;;;;;6.58;83.32;98686.53;6180592;28;20229;-76
2021/12/14 09:47:38;;;;;;;2.40;2.13;;;;;;;6.65;83.24;98677.44;6170914;28;20223;-76
2021/12/14 09:50:42;;;;;;;2.00;1.90;;;;;;;6.66;82.49;98681.75;6168764;28;20246;-75
2021/12/14 09:53:48;;;;;;;2.57;2.30;;;;;;;6.72;82.37;98677.97;6182064;28;20608;-76
2021/12/14 09:56:56;;;;;;;2.47;1.97;;;;;;;6.80;82.82;98674.97;6178503;28;20312;-75
2021/12/14 10:00:04;;;;;;;1.97;1.73;;;;;;;6.83;82.51;98675.69;6180672;28;20245;-76
2021/12/14 10:03:15;;;;;;;2.00;1.80;;;;;;;6.83;81.94;98670.44;6180453;28;20224;-78
2021/12/14 10:06:24;;;;;;;2.17;1.87;;;;;;;6.81;82.09;98671.44;6156243;28;20231;-77
2021/12/14 10:09:31;;;;;;;2.10;1.90;;;;;;;6.88;82.14;98657.09;6175263;28;20251;-76
2021/12/14 10:12:50;;;;;;;1.80;1.70;;;;;;;6.95;81.59;98658.47;6179743;28;20226;-75
2021/12/14 10:15:55;;;;;;;2.00;1.80;;;;;;;7.03;80.89;98659.78;6178676;28;20244;-74
2021/12/14 10:19:03;;;;;;;2.40;2.20;;;;;;;7.03;81.42;98654.53;6177929;28;20230;-76
2021/12/14 10:22:11;;;;;;;2.67;2.07;;;;;;;7.09;81.24;98656.00;6179472;28;20280;-75
2021/12/14 10:25:17;;;;;;;2.70;2.03;;;;;;;7.10;80.69;98656.84;6177042;28;20451;-76
2021/12/14 10:28:22;;;;;;;2.37;1.90;;;;;;;7.11;80.97;98656.78;6178506;28;20781;-73
2021/12/14 10:31:29;;;;;;;1.90;1.60;;;;;;;7.12;81.05;98657.63;6179002;28;20278;-76
2021/12/14 10:34:35;;;;;;;1.80;1.70;;;;;;;7.12;81.32;98657.63;6152286;28;20323;-76
2021/12/14 10:37:55;;;;;;;1.40;1.30;;;;;;;7.11;81.09;98648.91;6161345;28;20236;-75
2021/12/14 10:44:37;;;;;;;2.10;1.77;;;;;;;7.17;81.17;98642.50;6180312;28;20536;-77
2021/12/14 10:47:41;;;;;;;1.60;1.43;;;;;;;7.18;80.75;98645.06;6168060;28;20333;-76
2021/12/14 10:50:45;;;;;;;1.60;1.50;;;;;;;7.22;80.81;98640.47;6173764;28;20231;-75
2021/12/14 10:53:52;;;;;;;1.67;1.57;;;;;;;7.20;80.33;98639.69;6178906;28;20241;-74
2021/12/14 10:57:14;;;;;;;1.43;1.30;;;;;;;7.26;80.20;98635.00;6179402;28;20731;-74
2021/12/14 11:00:32;;;;;;;1.50;1.40;;;;;;;7.30;80.43;98633.06;6179770;28;20242;-75
2021/12/14 11:03:42;;;;;;;1.50;1.40;;;;;;;7.36;80.86;98628.34;6176237;28;20835;-75
2021/12/14 11:06:49;;;;;;;1.33;1.23;;;;;;;7.39;80.37;98625.53;6180228;28;20235;-75
2021/12/14 11:09:55;;;;;;;1.30;1.20;;;;;;;7.41;79.81;98621.06;6176565;28;20264;-76
2021/12/14 11:13:02;;;;;;;1.43;1.30;;;;;;;7.48;80.03;98612.88;6178818;28;20301;-77
2021/12/14 11:16:06;;;;;;;1.53;1.43;;;;;;;7.53;79.09;98616.94;6179081;28;20226;-74
2021/12/14 11:19:08;;;;;;;1.37;1.27;;;;;;;7.60;79.71;98614.84;6179260;28;20261;-76
2021/12/14 11:22:20;;;;;;;1.33;1.10;;;;;;;7.67;79.45;98603.09;6179482;28;20704;-75
2021/12/14 11:25:28;;;;;;;1.30;1.20;;;;;;;7.70;79.20;98595.03;6183165;28;20325;-76
2021/12/14 11:28:33;;;;;;;1.57;1.27;;;;;;;7.69;79.22;98598.56;6183754;28;20242;-75
2021/12/14 11:31:56;;;;;;;1.77;1.23;;;;;;;7.73;79.48;98597.50;6181577;28;20242;-76
2021/12/14 11:34:58;;;;;;;1.50;1.23;;;;;;;7.77;79.34;98594.63;6162562;28;20237;-76
2021/12/14 11:38:07;;;;;;;1.43;1.07;;;;;;;7.86;78.91;98590.66;6172089;28;20315;-75
2021/12/14 11:41:25;;;;;;;2.90;1.03;;;;;;;7.95;78.57;98592.75;6183536;28;20242;-76
2021/12/14 11:44:29;;;;;;;2.53;1.23;;;;;;;8.02;78.31;98586.22;6183369;28;20236;-77
2021/12/14 11:47:46;;;;;;;1.67;1.20;;;;;;;8.14;78.92;98575.03;6179439;28;20283;-76
2021/12/14 11:50:49;;;;;;;1.03;0.90;;;;;;;8.20;77.14;98583.50;6183578;28;20237;-76
2021/12/14 11:53:53;;;;;;;1.70;1.00;;;;;;;8.25;76.78;98574.44;6183792;28;20394;-76
2021/12/14 11:56:55;;;;;;;1.47;1.23;;;;;;;8.24;76.69;98582.41;6183572;28;20288;-77
2021/12/14 12:00:06;;;;;;;1.23;1.00;;;;;;;8.26;76.79;98575.28;6183428;28;20358;-76
2021/12/14 12:03:40;;;;;;;1.20;1.10;;;;;;;8.26;77.18;98573.50;6182762;28;20262;-77
2021/12/14 12:09:28;;;;;;;1.27;1.17;;;;;;;8.25;76.44;98574.44;6133089;28;20232;-77
2021/12/14 12:10:08;;;;;;;1.20;1.10;;;;;;;8.30;77.50;98569.75;6155617;28;20245;-76
2021/12/14 12:13:10;;;;;;;1.97;1.13;;;;;;;8.26;75.99;98577.91;6154720;28;20240;-76
2021/12/14 12:16:18;;;;;;;1.33;0.80;;;;;;;8.24;76.63;98575.38;6138397;28;20257;-77
2021/12/14 12:19:25;;;;;;;0.70;0.70;;;;;;;8.24;76.63;98569.25;6155408;28;20239;-74
2021/12/14 12:22:35;;;;;;;1.40;0.93;;;;;;;8.14;76.57;98567.16;6155006;28;20273;-76
2021/12/14 12:25:40;;;;;;;1.03;0.90;;;;;;;8.08;77.03;98567.50;6154500;28;20275;-77
2021/12/14 12:28:45;;;;;;;1.03;0.93;;;;;;;8.11;77.25;98564.69;6155487;28;20237;-77
2021/12/14 12:31:56;;;;;;;1.43;0.77;;;;;;;8.08;78.10;98562.25;6154165;28;20234;-76
2021/12/14 12:34:59;;;;;;;1.07;1.00;;;;;;;8.04;77.93;98563.34;6134360;28;20234;-75
2021/12/14 12:38:20;;;;;;;1.90;0.97;;;;;;;7.97;77.47;98569.03;6152414;28;20277;-74
2021/12/14 12:41:44;;;;;;;1.00;0.87;;;;;;;7.94;77.38;98571.81;6154662;28;20499;-76
2021/12/14 12:44:51;;;;;;;0.80;0.80;;;;;;;7.91;77.73;98572.81;6181495;28;20232;-76
2021/12/14 12:47:53;;;;;;;1.63;0.70;;;;;;;7.92;77.91;98568.41;6170951;28;20324;-75
2021/12/14 12:50:56;;;;;;;0.80;0.80;;;;;;;7.95;77.93;98563.00;6189167;28;20241;-75
2021/12/14 12:54:14;;;;;;;1.97;0.87;;;;;;;8.01;76.77;98560.03;6180589;28;20296;-75
2021/12/14 12:57:36;;;;;;;0.63;0.60;;;;;;;8.05;76.75;98562.41;6181905;28;20258;-76
2021/12/14 13:00:52;;;;;;;1.13;0.80;;;;;;;8.11;76.81;98572.56;6179582;28;20241;-74
2021/12/14 13:04:10;;;;;;;0.60;0.60;;;;;;;8.12;76.19;98571.63;6176193;28;20324;-75
2021/12/14 13:07:13;;;;;;;0.60;0.60;;;;;;;8.11;77.01;98569.09;6165730;28;20241;-76
2021/12/14 13:10:18;;;;;;;0.40;0.40;;;;;;;8.11;76.42;98563.84;6179762;28;20240;-76
2021/12/14 13:13:26;;;;;;;0.90;0.80;;;;;;;8.04;76.43;98573.00;6181618;28;20649;-75
2021/12/14 13:16:36;;;;;;;1.00;0.80;;;;;;;7.95;76.37;98568.25;6180948;28;20232;-76
2021/12/14 13:19:38;;;;;;;0.73;0.50;;;;;;;7.90;76.59;98575.53;6180977;28;20237;-75
2021/12/14 13:22:48;;;;;;;1.03;0.80;;;;;;;7.85;76.70;98577.59;6180254;28;20278;-76
2021/12/14 13:25:50;;;;;;;0.67;0.67;;;;;;;7.78;77.64;98582.34;6182275;28;20303;-75
2021/12/14 13:28:57;;;;;;;0.93;0.93;;;;;;;7.71;76.77;98580.94;6181325;28;20702;-76
2021/12/14 13:32:15;;;;;;;1.00;0.93;;;;;;;7.64;77.41;98590.09;6180526;28;20228;-77
2021/12/14 13:35:24;;;;;;;1.07;0.90;;;;;;;7.56;77.32;98587.06;6169067;28;20322;-76
2021/12/14 13:38:26;;;;;;;0.80;0.80;;;;;;;7.51;77.08;98583.81;6178947;28;20247;-75
2021/12/14 13:41:47;;;;;;;1.20;1.10;;;;;;;7.47;77.71;98579.66;6181077;28;20360;-76
2021/12/14 13:44:52;;;;;;;1.40;1.13;;;;;;;7.41;77.89;98579.03;6179689;28;20271;-76
2021/12/14 13:47:55;;;;;;;1.50;1.40;;;;;;;7.35;77.97;98579.38;6172788;28;20327;-76
2021/12/14 13:51:03;;;;;;;1.90;1.63;;;;;;;7.29;78.01;98584.09;6179932;28;20232;-76
2021/12/14 13:54:05;;;;;;;2.70;1.40;;;;;;;7.23;77.71;98587.91;6180355;28;20234;-76
2021/12/14 13:57:07;;;;;;;1.77;1.50;;;;;;;7.20;77.79;98590.66;6180530;28;20232;-76
2021/12/14 14:00:41;;;;;;;2.83;1.77;;;;;;;7.15;78.59;98597.09;6179823;28;20233;-75
2021/12/14 14:03:47;;;;;;;3.10;1.70;;;;;;;7.11;78.53;98591.16;6177415;28;20228;-75
2021/12/14 14:06:53;;;;;;;2.83;1.97;;;;;;;7.09;78.57;98595.63;6171318;28;20613;-76
2021/12/14 14:09:55;;;;;;;1.40;1.30;;;;;;;7.07;78.33;98594.03;6180461;28;20234;-74
2021/12/14 14:13:04;;;;;;;1.87;1.77;;;;;;;7.04;78.30;98592.41;6179841;28;20243;-75
2021/12/14 14:16:06;;;;;;;1.87;1.70;;;;;;;7.00;79.00;98591.72;6180191;28;20625;-76
2021/12/14 14:19:12;;;;;;;1.87;1.67;;;;;;;6.99;79.26;98597.03;6178804;28;20310;-75
2021/12/14 14:22:29;;;;;;;2.20;1.90;;;;;;;6.96;78.98;98594.59;6179433;28;20246;-75
2021/12/14 14:25:32;;;;;;;2.13;1.60;;;;;;;6.89;79.49;98596.66;6180642;28;20229;-76
2021/12/14 14:28:45;;;;;;;2.17;1.70;;;;;;;6.86;79.52;98599.44;6179600;28;20265;-75
2021/12/14 14:31:55;;;;;;;1.73;1.60;;;;;;;6.83;80.00;98591.72;6178667;28;20237;-76
2021/12/14 14:35:01;;;;;;;1.63;1.53;;;;;;;6.78;80.13;98596.38;6164773;28;20314;-75
2021/12/14 14:38:26;;;;;;;1.60;1.50;;;;;;;6.76;80.15;98598.22;6172388;28;20242;-74
2021/12/14 14:41:33;;;;;;;1.93;1.60;;;;;;;6.72;80.32;98604.53;6176196;28;20242;-75
2021/12/14 14:44:40;;;;;;;2.00;1.80;;;;;;;6.70;80.45;98609.00;6178248;28;20737;-76
2021/12/14 14:47:44;;;;;;;1.63;1.30;;;;;;;6.66;80.92;98613.56;6168455;28;20285;-74
2021/12/14 14:50:48;;;;;;;2.00;1.80;;;;;;;6.62;80.97;98608.53;6163146;28;20243;-75
2021/12/14 14:53:50;;;;;;;1.70;1.60;;;;;;;6.58;81.36;98604.38;6177610;28;20234;-75
2021/12/14 14:56:53;;;;;;;1.53;1.43;;;;;;;6.57;81.56;98607.94;6179132;28;20260;-75
2021/12/14 14:59:55;;;;;;;1.27;1.00;;;;;;;6.54;81.47;98613.31;6179472;28;20650;-76
2021/12/14 15:03:00;;;;;;;1.83;1.40;;;;;;;6.51;81.56;98613.44;6178986;28;20610;-75
2021/12/14 15:06:08;;;;;;;1.73;1.10;;;;;;;6.46;81.49;98620.72;6149232;28;20350;-74
2021/12/14 15:09:19;;;;;;;1.53;1.10;;;;;;;6.44;81.51;98612.91;6182132;28;20231;-75
2021/12/14 15:12:21;;;;;;;1.63;1.47;;;;;;;6.41;81.92;98614.81;6179542;28;20237;-76
2021/12/14 15:15:27;;;;;;;1.17;0.97;;;;;;;6.39;82.36;98608.84;6179532;28;20581;-75
2021/12/14 15:19:11;;;;;;;1.57;1.47;;;;;;;6.36;82.39;98608.97;6179862;28;20235;-77
2021/12/14 15:22:14;;;;;;;1.23;1.13;;;;;;;6.28;82.58;98623.31;6177848;28;20236;-74
2021/12/14 15:25:31;;;;;;;1.77;1.27;;;;;;;6.25;83.17;98614.72;6179690;28;20240;-76
2021/12/14 15:28:33;;;;;;;1.70;1.60;;;;;;;6.20;83.57;98614.94;6176995;28;20230;-75
2021/12/14 15:31:35;;;;;;;1.90;1.70;;;;;;;6.17;83.85;98624.72;6178136;28;20359;-75
2021/12/14 15:34:49;;;;;;;2.03;1.47;;;;;;;6.14;83.77;98625.72;6158108;28;20642;-76